Time;durP1;ratioP1;P1;durP2;ratioP2;P2;SDS_P1;SDS_P2;PMS_P1;PMS_P2;Temp;Humidity;BMP_temperature;BMP_pressure;BME280_temperature;BME280_humidity;BME280_pressure;Samples;Min_cycle;Max_cycle;Signal;HPM_P1;HPM_P2
2023/09/25 00:00:11;;;;;;;5.60;1.30;;;;;;;;;;4950758;28;20070;-44
2023/09/25 00:02:38;;;;;;;5.78;1.30;;;;;;;;;;4963995;28;20516;-44
2023/09/25 00:05:07;;;;;;;6.45;1.20;;;;;;;;;;4952221;28;20705;-43
2023/09/25 00:07:38;;;;;;;4.97;1.17;;;;;;;;;;4958834;28;20045;-44
2023/09/25 00:10:07;;;;;;;4.93;1.30;;;;;;;;;;4961289;28;20606;-44
2023/09/25 00:12:35;;;;;;;6.50;1.33;;;;;;;;;;4948597;28;20030;-45
2023/09/25 00:15:05;;;;;;;6.13;1.30;;;;;;;;;;4955846;28;20060;-45
2023/09/25 00:17:33;;;;;;;6.05;1.25;;;;;;;;;;4947556;28;20129;-44
2023/09/25 00:20:01;;;;;;;7.53;1.60;;;;;;;;;;4959002;28;20108;-47
2023/09/25 00:22:30;;;;;;;5.97;1.38;;;;;;;;;;4958796;28;20042;-44
2023/09/25 00:24:59;;;;;;;5.00;1.23;;;;;;;;;;4966536;28;20042;-45
2023/09/25 00:27:27;;;;;;;5.93;1.65;;;;;;;;;;4933797;28;20045;-45
2023/09/25 00:29:55;;;;;;;6.82;1.15;;;;;;;;;;4966695;28;20038;-46
2023/09/25 00:32:23;;;;;;;7.53;1.67;;;;;;;;;;4948118;28;20046;-46
2023/09/25 00:34:51;;;;;;;6.30;1.67;;;;;;;;;;4960523;28;20038;-44
2023/09/25 00:37:18;;;;;;;8.53;1.50;;;;;;;;;;4954521;28;20439;-45
2023/09/25 00:39:46;;;;;;;7.03;1.50;;;;;;;;;;4961611;28;20057;-43
2023/09/25 00:42:15;;;;;;;8.85;1.40;;;;;;;;;;4948920;28;20664;-46
2023/09/25 00:44:44;;;;;;;8.25;0.90;;;;;;;;;;4966353;28;20128;-43
2023/09/25 00:47:11;;;;;;;6.72;1.13;;;;;;;;;;4945534;28;20939;-44
2023/09/25 00:49:39;;;;;;;7.00;1.60;;;;;;;;;;4963673;28;20049;-44
2023/09/25 00:52:09;;;;;;;5.88;1.23;;;;;;;;;;4949443;28;20104;-44
2023/09/25 00:54:37;;;;;;;6.80;1.88;;;;;;;;;;4963307;28;20608;-44
2023/09/25 00:57:13;;;;;;;5.68;1.13;;;;;;;;;;4967584;28;20043;-45
2023/09/25 00:59:42;;;;;;;7.82;1.40;;;;;;;;;;4950767;28;23203;-44
2023/09/25 01:02:10;;;;;;;8.07;1.37;;;;;;;;;;4962652;28;20397;-44
2023/09/25 01:04:39;;;;;;;7.25;1.63;;;;;;;;;;4952919;28;20050;-44
2023/09/25 01:07:06;;;;;;;9.95;1.77;;;;;;;;;;4960530;28;20046;-44
2023/09/25 01:09:34;;;;;;;6.65;1.63;;;;;;;;;;4951578;28;20521;-44
2023/09/25 01:12:04;;;;;;;6.20;1.38;;;;;;;;;;4961955;28;20038;-44
2023/09/25 01:14:32;;;;;;;7.97;1.70;;;;;;;;;;4954481;28;20038;-45
2023/09/25 01:17:01;;;;;;;8.63;1.77;;;;;;;;;;4962336;28;20045;-44
2023/09/25 01:19:31;;;;;;;11.57;2.40;;;;;;;;;;4941216;28;20061;-45
2023/09/25 01:22:00;;;;;;;10.80;1.77;;;;;;;;;;4965170;28;20057;-44
2023/09/25 01:24:28;;;;;;;7.55;1.20;;;;;;;;;;4948884;28;20049;-46
2023/09/25 01:26:56;;;;;;;11.80;1.60;;;;;;;;;;4951814;28;20057;-44
2023/09/25 01:29:24;;;;;;;10.48;2.00;;;;;;;;;;4953481;28;20039;-45
2023/09/25 01:31:52;;;;;;;12.32;2.92;;;;;;;;;;4960885;28;20038;-44
2023/09/25 01:34:20;;;;;;;9.10;2.00;;;;;;;;;;4950773;28;20038;-45
2023/09/25 01:36:48;;;;;;;10.07;1.85;;;;;;;;;;4961970;28;20081;-43
2023/09/25 01:39:17;;;;;;;12.27;2.50;;;;;;;;;;4952312;28;20574;-44
2023/09/25 01:41:45;;;;;;;11.55;2.22;;;;;;;;;;4962099;28;20121;-44
2023/09/25 01:44:15;;;;;;;10.73;2.15;;;;;;;;;;4964748;28;20038;-45
2023/09/25 01:46:43;;;;;;;9.80;2.00;;;;;;;;;;4949095;28;20126;-44
2023/09/25 01:49:11;;;;;;;9.10;2.22;;;;;;;;;;4964348;28;20038;-46
2023/09/25 01:51:39;;;;;;;12.03;1.97;;;;;;;;;;4952594;28;20130;-44
2023/09/25 01:54:07;;;;;;;12.75;1.90;;;;;;;;;;4958837;28;20101;-47
2023/09/25 01:56:37;;;;;;;9.77;1.83;;;;;;;;;;4954303;28;20046;-44
2023/09/25 01:59:04;;;;;;;11.32;2.25;;;;;;;;;;4962924;28;20043;-44
2023/09/25 02:01:32;;;;;;;9.55;2.42;;;;;;;;;;4956704;28;20030;-44
2023/09/25 02:04:00;;;;;;;13.77;2.37;;;;;;;;;;4965173;28;20574;-44
2023/09/25 02:06:28;;;;;;;12.73;2.80;;;;;;;;;;4957559;28;20038;-44
2023/09/25 02:08:56;;;;;;;10.68;2.58;;;;;;;;;;4966287;28;20077;-44
2023/09/25 02:11:24;;;;;;;10.13;2.67;;;;;;;;;;4946582;28;20049;-44
2023/09/25 02:13:53;;;;;;;10.43;2.00;;;;;;;;;;4967611;28;20073;-46
2023/09/25 02:16:21;;;;;;;10.27;2.20;;;;;;;;;;4957073;28;20105;-44
2023/09/25 02:18:51;;;;;;;11.95;2.45;;;;;;;;;;4968557;28;20091;-46
2023/09/25 02:21:19;;;;;;;9.68;2.10;;;;;;;;;;4960056;28;20054;-44
2023/09/25 02:23:48;;;;;;;12.18;1.95;;;;;;;;;;4963390;28;20097;-45
2023/09/25 02:26:16;;;;;;;14.73;2.45;;;;;;;;;;4955977;28;20038;-43
2023/09/25 02:28:43;;;;;;;11.57;2.57;;;;;;;;;;4964994;28;20043;-44
2023/09/25 02:31:13;;;;;;;13.35;2.78;;;;;;;;;;4956556;28;20104;-45
2023/09/25 02:33:41;;;;;;;12.15;2.58;;;;;;;;;;4969054;28;20038;-44
2023/09/25 02:36:10;;;;;;;10.85;2.17;;;;;;;;;;4949924;28;20050;-43
2023/09/25 02:38:38;;;;;;;11.65;2.50;;;;;;;;;;4957631;28;20587;-44
2023/09/25 02:41:06;;;;;;;11.93;2.60;;;;;;;;;;4961825;28;20050;-43
2023/09/25 02:43:34;;;;;;;14.07;2.70;;;;;;;;;;4953770;28;20050;-46
2023/09/25 02:46:01;;;;;;;8.43;2.10;;;;;;;;;;4969344;28;20046;-44
2023/09/25 02:48:31;;;;;;;12.57;2.13;;;;;;;;;;4951976;28;20046;-44
2023/09/25 02:50:58;;;;;;;8.52;2.22;;;;;;;;;;4966249;28;20122;-44
2023/09/25 02:53:26;;;;;;;7.97;2.57;;;;;;;;;;4953889;28;21652;-44
2023/09/25 02:55:54;;;;;;;13.77;2.38;;;;;;;;;;4958979;28;20523;-44
2023/09/25 02:58:22;;;;;;;11.90;2.42;;;;;;;;;;4941579;28;20404;-44
2023/09/25 03:00:55;;;;;;;8.32;2.45;;;;;;;;;;4949288;28;20239;-45
2023/09/25 03:03:23;;;;;;;13.30;2.50;;;;;;;;;;4962724;28;20176;-44
2023/09/25 03:05:52;;;;;;;11.07;2.30;;;;;;;;;;4960308;28;20129;-44
2023/09/25 03:08:20;;;;;;;8.43;2.00;;;;;;;;;;4960397;28;20053;-44
2023/09/25 03:10:47;;;;;;;12.77;2.67;;;;;;;;;;4935144;28;20366;-43
2023/09/25 03:13:15;;;;;;;12.98;2.42;;;;;;;;;;4967480;28;20050;-44
2023/09/25 03:15:43;;;;;;;13.18;2.50;;;;;;;;;;4971012;28;20846;-46
2023/09/25 03:18:11;;;;;;;13.23;2.53;;;;;;;;;;4939125;28;20051;-45
2023/09/25 03:20:39;;;;;;;11.40;2.63;;;;;;;;;;4972328;28;20413;-44
2023/09/25 03:23:09;;;;;;;11.43;2.28;;;;;;;;;;4967636;28;20503;-46
2023/09/25 03:25:37;;;;;;;11.15;2.67;;;;;;;;;;4963856;28;20122;-44
2023/09/25 03:28:05;;;;;;;13.60;2.30;;;;;;;;;;4967154;28;20053;-44
2023/09/25 03:30:33;;;;;;;10.03;1.70;;;;;;;;;;4953915;28;20042;-44
2023/09/25 03:33:01;;;;;;;10.20;1.73;;;;;;;;;;4967636;28;20056;-44
2023/09/25 03:35:29;;;;;;;11.25;1.55;;;;;;;;;;4974032;28;20030;-45
2023/09/25 03:37:57;;;;;;;10.93;1.60;;;;;;;;;;4966146;28;20038;-44
2023/09/25 03:40:26;;;;;;;12.27;1.67;;;;;;;;;;4949143;28;20723;-44
2023/09/25 03:42:55;;;;;;;12.57;1.70;;;;;;;;;;4967557;28;20031;-44
2023/09/25 03:45:23;;;;;;;16.35;2.50;;;;;;;;;;4967251;28;20050;-44
2023/09/25 03:47:52;;;;;;;12.60;2.63;;;;;;;;;;4959606;28;20636;-44
2023/09/25 03:50:20;;;;;;;13.50;1.83;;;;;;;;;;4945659;28;21034;-43
2023/09/25 03:52:47;;;;;;;9.07;2.90;;;;;;;;;;4961050;28;20030;-44
2023/09/25 03:55:15;;;;;;;9.00;2.10;;;;;;;;;;4974310;28;20038;-44
2023/09/25 03:57:46;;;;;;;14.50;2.05;;;;;;;;;;4966302;28;20031;-45
2023/09/25 04:00:14;;;;;;;11.20;1.85;;;;;;;;;;4963271;28;20121;-44
2023/09/25 04:02:42;;;;;;;10.82;2.03;;;;;;;;;;4961149;28;20995;-43
2023/09/25 04:05:12;;;;;;;14.43;2.10;;;;;;;;;;4953407;28;20245;-44
2023/09/25 04:07:39;;;;;;;18.47;2.53;;;;;;;;;;4960528;28;20038;-44
2023/09/25 04:10:08;;;;;;;13.52;2.13;;;;;;;;;;4973104;28;20049;-44
2023/09/25 04:12:36;;;;;;;9.73;1.90;;;;;;;;;;4944478;28;21224;-44
2023/09/25 04:15:07;;;;;;;13.05;1.95;;;;;;;;;;4968146;28;20533;-44
2023/09/25 04:17:35;;;;;;;12.80;2.03;;;;;;;;;;4966095;28;20117;-46
2023/09/25 04:20:07;;;;;;;15.30;2.50;;;;;;;;;;4957934;28;20056;-44
2023/09/25 04:22:37;;;;;;;10.68;1.63;;;;;;;;;;4970336;28;20042;-44
2023/09/25 04:25:08;;;;;;;10.77;1.90;;;;;;;;;;4961373;28;20074;-44
2023/09/25 04:27:39;;;;;;;16.63;2.50;;;;;;;;;;4968740;28;20480;-44
2023/09/25 04:30:12;;;;;;;12.10;2.80;;;;;;;;;;4953909;28;20097;-44
2023/09/25 04:32:40;;;;;;;13.40;2.40;;;;;;;;;;4960900;28;20065;-44
2023/09/25 04:35:09;;;;;;;11.40;1.85;;;;;;;;;;4959280;28;20066;-44
2023/09/25 04:37:38;;;;;;;13.25;2.22;;;;;;;;;;4962621;28;20042;-44
2023/09/25 04:40:13;;;;;;;9.93;2.55;;;;;;;;;;4958249;28;20043;-44
2023/09/25 04:42:41;;;;;;;10.63;2.53;;;;;;;;;;4953127;28;20045;-44
2023/09/25 04:45:13;;;;;;;13.23;2.20;;;;;;;;;;4963360;28;20057;-44
2023/09/25 04:47:41;;;;;;;13.32;2.40;;;;;;;;;;4958505;28;20138;-44
2023/09/25 04:50:10;;;;;;;10.10;1.70;;;;;;;;;;4963524;28;20046;-44
2023/09/25 04:52:40;;;;;;;15.05;2.13;;;;;;;;;;4952188;28;20058;-45
2023/09/25 04:55:08;;;;;;;10.98;2.13;;;;;;;;;;4968115;28;20132;-44
2023/09/25 04:57:36;;;;;;;11.50;2.07;;;;;;;;;;4951726;28;20058;-44
2023/09/25 05:00:15;;;;;;;10.32;2.08;;;;;;;;;;4954289;28;20105;-44
2023/09/25 05:02:45;;;;;;;13.40;2.10;;;;;;;;;;4969988;28;20065;-45
2023/09/25 05:05:13;;;;;;;10.98;2.50;;;;;;;;;;4949219;28;20046;-44
2023/09/25 05:07:43;;;;;;;10.93;3.00;;;;;;;;;;4964223;28;20113;-44
2023/09/25 05:10:11;;;;;;;16.07;2.20;;;;;;;;;;4964188;28;20042;-44
2023/09/25 05:12:39;;;;;;;14.75;2.50;;;;;;;;;;4948733;28;20042;-43
2023/09/25 05:15:08;;;;;;;13.27;2.10;;;;;;;;;;4964074;28;20052;-45
2023/09/25 05:17:37;;;;;;;29.48;2.67;;;;;;;;;;4957329;28;20157;-44
2023/09/25 05:20:10;;;;;;;14.38;2.33;;;;;;;;;;4959351;28;20066;-43
2023/09/25 05:22:38;;;;;;;12.07;2.10;;;;;;;;;;4952948;28;20030;-45
2023/09/25 05:25:07;;;;;;;13.82;2.30;;;;;;;;;;4958195;28;20046;-45
2023/09/25 05:27:35;;;;;;;16.73;3.10;;;;;;;;;;4949224;28;20048;-44
2023/09/25 05:30:04;;;;;;;11.63;1.98;;;;;;;;;;4958592;28;20085;-44
2023/09/25 05:32:31;;;;;;;16.63;2.58;;;;;;;;;;4955778;28;20195;-44
2023/09/25 05:35:00;;;;;;;12.20;2.07;;;;;;;;;;4944370;28;22498;-45
2023/09/25 05:37:29;;;;;;;13.27;1.80;;;;;;;;;;4959603;28;20042;-44
2023/09/25 05:39:57;;;;;;;20.60;2.70;;;;;;;;;;4952008;28;20057;-44
2023/09/25 05:42:24;;;;;;;13.88;2.45;;;;;;;;;;4953845;28;20035;-44
2023/09/25 05:44:52;;;;;;;13.57;2.80;;;;;;;;;;4950705;28;20046;-44
2023/09/25 05:47:20;;;;;;;13.43;1.90;;;;;;;;;;4968334;28;20057;-44
2023/09/25 05:49:47;;;;;;;14.00;2.65;;;;;;;;;;4944345;28;20027;-50
2023/09/25 05:52:15;;;;;;;11.48;2.72;;;;;;;;;;4963630;28;20046;-44
2023/09/25 05:54:45;;;;;;;14.88;2.40;;;;;;;;;;4950093;28;20547;-44
2023/09/25 05:57:13;;;;;;;16.98;2.95;;;;;;;;;;4956666;28;20600;-45
2023/09/25 05:59:41;;;;;;;12.67;2.80;;;;;;;;;;4964109;28;20038;-44
2023/09/25 06:02:09;;;;;;;15.45;3.10;;;;;;;;;;4941127;28;20480;-44
2023/09/25 06:04:37;;;;;;;12.13;3.38;;;;;;;;;;4950420;28;20946;-46
2023/09/25 06:07:05;;;;;;;10.35;2.83;;;;;;;;;;4957567;28;20042;-44
2023/09/25 06:09:33;;;;;;;18.15;3.33;;;;;;;;;;4960086;28;20053;-48
2023/09/25 06:12:03;;;;;;;17.73;2.90;;;;;;;;;;4956371;28;20177;-44
2023/09/25 06:14:31;;;;;;;13.50;3.05;;;;;;;;;;4938061;28;20038;-45
2023/09/25 06:17:02;;;;;;;16.48;2.90;;;;;;;;;;4955932;28;20056;-45
2023/09/25 06:19:31;;;;;;;13.45;3.10;;;;;;;;;;4964940;28;20462;-47
2023/09/25 06:21:59;;;;;;;16.70;3.15;;;;;;;;;;4954927;28;20042;-44
2023/09/25 06:24:26;;;;;;;15.30;2.87;;;;;;;;;;4952257;28;20047;-44
2023/09/25 06:26:54;;;;;;;14.65;3.28;;;;;;;;;;4946026;28;20039;-46
2023/09/25 06:29:24;;;;;;;18.05;3.90;;;;;;;;;;4954135;28;20038;-46
2023/09/25 06:31:55;;;;;;;15.25;3.88;;;;;;;;;;4958223;28;20034;-45
2023/09/25 06:34:28;;;;;;;15.55;3.90;;;;;;;;;;4942372;28;20057;-45
2023/09/25 06:36:56;;;;;;;13.43;4.10;;;;;;;;;;4964048;28;20133;-44
2023/09/25 06:39:24;;;;;;;14.02;4.43;;;;;;;;;;4954561;28;20064;-44
2023/09/25 06:41:52;;;;;;;20.35;4.35;;;;;;;;;;4951700;28;20299;-45
2023/09/25 06:44:20;;;;;;;19.75;5.20;;;;;;;;;;4952981;28;20741;-44
2023/09/25 06:46:49;;;;;;;15.48;4.45;;;;;;;;;;4956446;28;20125;-44
2023/09/25 06:49:18;;;;;;;18.27;5.07;;;;;;;;;;4958097;28;20042;-44
2023/09/25 06:51:46;;;;;;;21.27;5.20;;;;;;;;;;4956277;28;20050;-44
2023/09/25 06:54:14;;;;;;;14.20;5.30;;;;;;;;;;4946263;28;20041;-44
2023/09/25 06:56:42;;;;;;;18.58;4.82;;;;;;;;;;4951566;28;20042;-45
2023/09/25 06:59:10;;;;;;;19.30;5.00;;;;;;;;;;4959374;28;20042;-46
2023/09/25 07:01:38;;;;;;;16.80;4.43;;;;;;;;;;4951582;28;20042;-46
2023/09/25 07:04:07;;;;;;;18.73;4.68;;;;;;;;;;4963720;28;20045;-44
2023/09/25 07:06:35;;;;;;;23.10;4.60;;;;;;;;;;4951615;28;20437;-45
2023/09/25 07:09:04;;;;;;;20.60;4.22;;;;;;;;;;4944765;28;20046;-44
2023/09/25 07:11:31;;;;;;;19.67;4.47;;;;;;;;;;4962981;28;20035;-44
2023/09/25 07:13:59;;;;;;;14.30;3.73;;;;;;;;;;4961087;28;20716;-45
2023/09/25 07:16:45;;;;;;;15.77;4.05;;;;;;;;;;4956425;28;20035;-45
2023/09/25 07:19:15;;;;;;;18.25;3.67;;;;;;;;;;4958903;28;20050;-45
2023/09/25 07:21:43;;;;;;;20.95;4.38;;;;;;;;;;4962794;28;20049;-45
2023/09/25 07:24:11;;;;;;;18.30;3.70;;;;;;;;;;4961724;28;20125;-46
2023/09/25 07:26:39;;;;;;;16.90;3.17;;;;;;;;;;4953774;28;20039;-44
2023/09/25 07:29:07;;;;;;;17.23;3.85;;;;;;;;;;4933108;28;20413;-44
2023/09/25 07:31:53;;;;;;;17.65;4.20;;;;;;;;;;4950796;28;20042;-45
2023/09/25 07:34:23;;;;;;;17.30;4.18;;;;;;;;;;4958115;28;20046;-45
2023/09/25 07:36:52;;;;;;;21.38;4.63;;;;;;;;;;4953906;28;20064;-45
2023/09/25 07:39:22;;;;;;;18.50;3.87;;;;;;;;;;4958941;28;20065;-44
2023/09/25 07:41:50;;;;;;;25.92;4.88;;;;;;;;;;4616017;28;9999749;-45
2023/09/25 07:44:18;;;;;;;20.95;4.05;;;;;;;;;;4938526;28;20057;-45
2023/09/25 07:46:47;;;;;;;19.00;4.67;;;;;;;;;;4933110;28;20065;-46
2023/09/25 07:49:15;;;;;;;19.67;5.25;;;;;;;;;;4958930;28;20100;-44
2023/09/25 07:51:44;;;;;;;25.73;5.65;;;;;;;;;;4952230;28;20578;-45
2023/09/25 07:54:12;;;;;;;17.67;5.95;;;;;;;;;;4957811;28;20153;-44
2023/09/25 07:56:40;;;;;;;19.13;5.15;;;;;;;;;;4955360;28;20447;-45
2023/09/25 07:59:08;;;;;;;15.67;4.80;;;;;;;;;;4962668;28;20054;-46
2023/09/25 08:01:38;;;;;;;20.10;5.45;;;;;;;;;;4961181;28;20064;-44
2023/09/25 08:04:06;;;;;;;21.40;5.37;;;;;;;;;;4608670;28;10000191;-45
2023/09/25 08:06:35;;;;;;;14.87;3.67;;;;;;;;;;4963292;28;20510;-44
2023/09/25 08:09:04;;;;;;;25.58;5.05;;;;;;;;;;4944036;28;20046;-47
2023/09/25 08:11:32;;;;;;;18.60;4.35;;;;;;;;;;4916956;28;20105;-45
2023/09/25 08:14:00;;;;;;;14.65;4.55;;;;;;;;;;4892232;28;20049;-44
2023/09/25 08:16:27;;;;;;;17.17;5.00;;;;;;;;;;4940373;28;20052;-47
2023/09/25 08:18:56;;;;;;;25.43;4.60;;;;;;;;;;4936394;28;20445;-44
2023/09/25 08:21:24;;;;;;;18.98;4.68;;;;;;;;;;4942783;28;20440;-46
2023/09/25 08:23:51;;;;;;;19.73;3.80;;;;;;;;;;4928665;28;20042;-44
2023/09/25 08:26:20;;;;;;;17.92;3.13;;;;;;;;;;4942244;28;20062;-47
2023/09/25 08:28:50;;;;;;;24.02;3.65;;;;;;;;;;4941901;28;20081;-44
2023/09/25 08:31:20;;;;;;;18.57;3.30;;;;;;;;;;4935679;28;20050;-49
2023/09/25 08:33:48;;;;;;;14.27;3.15;;;;;;;;;;4925886;28;20499;-45
2023/09/25 08:36:16;;;;;;;25.98;3.55;;;;;;;;;;4938029;28;20129;-48
2023/09/25 08:38:45;;;;;;;14.77;3.40;;;;;;;;;;4940131;28;21527;-44
2023/09/25 08:41:15;;;;;;;19.38;3.63;;;;;;;;;;4932940;28;20118;-45
2023/09/25 08:43:45;;;;;;;19.00;2.73;;;;;;;;;;4945166;28;20048;-46
2023/09/25 08:46:13;;;;;;;18.60;3.40;;;;;;;;;;4961797;28;20089;-46
2023/09/25 08:48:41;;;;;;;20.45;3.47;;;;;;;;;;4934543;28;20051;-46
2023/09/25 08:51:10;;;;;;;15.40;3.50;;;;;;;;;;4939782;28;20121;-44
2023/09/25 08:53:37;;;;;;;17.00;3.28;;;;;;;;;;4938538;28;20030;-46
2023/09/25 08:56:06;;;;;;;13.90;2.33;;;;;;;;;;4941424;28;20054;-46
2023/09/25 08:58:34;;;;;;;13.05;2.38;;;;;;;;;;4939478;28;20525;-44
2023/09/25 09:01:03;;;;;;;17.08;2.70;;;;;;;;;;4939659;28;20046;-45
2023/09/25 09:03:33;;;;;;;19.08;3.00;;;;;;;;;;4939072;28;20108;-46
2023/09/25 09:06:04;;;;;;;13.27;2.40;;;;;;;;;;4945453;28;20508;-45
2023/09/25 09:08:31;;;;;;;14.67;2.90;;;;;;;;;;4932198;28;20953;-45
2023/09/25 09:11:08;;;;;;;17.65;2.88;;;;;;;;;;4931001;28;20424;-48
2023/09/25 09:13:42;;;;;;;15.52;2.55;;;;;;;;;;4940391;28;20053;-47
2023/09/25 09:16:13;;;;;;;12.70;2.42;;;;;;;;;;4938713;28;20112;-47
2023/09/25 09:18:42;;;;;;;16.40;2.85;;;;;;;;;;4935632;28;20561;-46
2023/09/25 09:21:20;;;;;;;16.00;3.03;;;;;;;;;;4935163;28;20050;-46
2023/09/25 09:23:48;;;;;;;19.08;2.58;;;;;;;;;;4914908;28;20529;-47
2023/09/25 09:26:16;;;;;;;18.13;2.75;;;;;;;;;;4948539;28;20042;-45
2023/09/25 09:28:46;;;;;;;19.08;3.08;;;;;;;;;;4915742;28;20046;-48
2023/09/25 09:31:17;;;;;;;17.92;2.67;;;;;;;;;;4935207;28;20042;-38
2023/09/25 09:33:46;;;;;;;18.17;2.60;;;;;;;;;;4934827;28;20492;-38
2023/09/25 09:36:14;;;;;;;15.10;2.50;;;;;;;;;;4920159;28;20093;-36
2023/09/25 09:38:43;;;;;;;15.52;2.47;;;;;;;;;;4926724;28;20554;-36
2023/09/25 09:41:13;;;;;;;15.32;2.97;;;;;;;;;;4940942;28;20049;-36
2023/09/25 09:43:41;;;;;;;18.73;2.90;;;;;;;;;;4937206;28;20054;-36
2023/09/25 09:46:11;;;;;;;17.47;3.00;;;;;;;;;;4943877;28;20582;-36
2023/09/25 09:48:41;;;;;;;19.75;2.90;;;;;;;;;;4940893;28;20042;-37
2023/09/25 09:51:10;;;;;;;20.13;2.00;;;;;;;;;;4937703;28;20054;-36
2023/09/25 09:53:38;;;;;;;17.05;2.47;;;;;;;;;;4958143;28;20097;-36
2023/09/25 09:56:05;;;;;;;19.90;3.03;;;;;;;;;;4951636;28;20488;-36
2023/09/25 09:58:36;;;;;;;16.43;2.57;;;;;;;;;;4960922;28;20582;-36
2023/09/25 10:01:05;;;;;;;16.95;2.33;;;;;;;;;;4962614;28;20387;-36
2023/09/25 10:03:33;;;;;;;14.07;2.10;;;;;;;;;;4957013;28;20073;-36
2023/09/25 10:06:02;;;;;;;12.83;2.27;;;;;;;;;;4604230;28;10000666;-36
2023/09/25 10:08:31;;;;;;;12.80;2.25;;;;;;;;;;4953687;28;20053;-36
2023/09/25 10:11:14;;;;;;;12.13;1.95;;;;;;;;;;4942529;28;21362;-36
2023/09/25 10:13:43;;;;;;;13.98;2.45;;;;;;;;;;4934534;28;20057;-36
2023/09/25 10:16:12;;;;;;;11.17;2.17;;;;;;;;;;4956586;28;20042;-36
2023/09/25 10:18:42;;;;;;;13.13;2.40;;;;;;;;;;4958038;28;20072;-36
2023/09/25 10:21:14;;;;;;;18.05;2.80;;;;;;;;;;4961140;28;20034;-36
2023/09/25 10:23:44;;;;;;;15.93;2.30;;;;;;;;;;4953742;28;20046;-36
2023/09/25 10:26:17;;;;;;;15.48;2.78;;;;;;;;;;4959303;28;20050;-36
2023/09/25 10:28:44;;;;;;;13.63;2.13;;;;;;;;;;4956041;28;20057;-36
2023/09/25 10:31:19;;;;;;;13.20;3.00;;;;;;;;;;4964731;28;20039;-36
2023/09/25 10:33:53;;;;;;;18.40;2.42;;;;;;;;;;4920156;28;20072;-37
2023/09/25 10:36:35;;;;;;;17.40;2.65;;;;;;;;;;4965510;28;20054;-36
2023/09/25 10:39:02;;;;;;;15.98;3.10;;;;;;;;;;4955568;28;20392;-36
2023/09/25 10:41:31;;;;;;;8.47;1.40;;;;;;;;;;4966827;28;20059;-36
2023/09/25 10:43:59;;;;;;;11.38;2.05;;;;;;;;;;4952592;28;20378;-37
2023/09/25 10:46:27;;;;;;;17.65;2.25;;;;;;;;;;4953446;28;20805;-38
2023/09/25 10:48:55;;;;;;;14.75;2.88;;;;;;;;;;4955037;28;20096;-37
2023/09/25 10:51:24;;;;;;;12.80;1.77;;;;;;;;;;4952699;28;20126;-36
2023/09/25 10:53:53;;;;;;;14.83;2.27;;;;;;;;;;4951828;28;20117;-37
2023/09/25 10:56:22;;;;;;;14.32;2.15;;;;;;;;;;4952095;28;20612;-36
2023/09/25 10:58:52;;;;;;;17.88;3.10;;;;;;;;;;4974797;28;20703;-37
2023/09/25 11:01:24;;;;;;;13.80;2.35;;;;;;;;;;4959362;28;20090;-37
2023/09/25 11:03:55;;;;;;;11.48;2.38;;;;;;;;;;4931895;28;20498;-37
2023/09/25 11:06:25;;;;;;;13.13;2.50;;;;;;;;;;4929752;28;20482;-36
2023/09/25 11:08:57;;;;;;;14.95;2.35;;;;;;;;;;4918160;28;20233;-37
2023/09/25 11:11:28;;;;;;;13.55;2.33;;;;;;;;;;4932297;28;20543;-37
2023/09/25 11:13:57;;;;;;;12.02;2.05;;;;;;;;;;4935593;28;20077;-37
2023/09/25 11:16:25;;;;;;;15.18;2.45;;;;;;;;;;4941283;28;20547;-36
2023/09/25 11:19:04;;;;;;;18.03;2.40;;;;;;;;;;4924734;28;20050;-36
2023/09/25 11:21:33;;;;;;;12.65;2.25;;;;;;;;;;4936892;28;20129;-37
2023/09/25 11:24:04;;;;;;;21.02;2.88;;;;;;;;;;4929642;28;20046;-37
2023/09/25 11:26:35;;;;;;;11.52;2.08;;;;;;;;;;4939374;28;20372;-37
2023/09/25 11:29:06;;;;;;;9.75;2.40;;;;;;;;;;4939311;28;20470;-36
2023/09/25 11:31:33;;;;;;;12.30;1.63;;;;;;;;;;4937777;28;20050;-36
2023/09/25 11:34:21;;;;;;;14.00;2.22;;;;;;;;;;4949121;28;20793;-39
2023/09/25 11:36:50;;;;;;;17.25;2.53;;;;;;;;;;4933789;28;21081;-36
2023/09/25 11:39:18;;;;;;;11.18;2.45;;;;;;;;;;4935448;28;20558;-36
2023/09/25 11:41:46;;;;;;;15.05;2.15;;;;;;;;;;4938889;28;20105;-36
2023/09/25 11:44:14;;;;;;;15.43;2.20;;;;;;;;;;4939117;28;20050;-36
2023/09/25 11:46:42;;;;;;;11.88;2.10;;;;;;;;;;4933203;28;20066;-36
2023/09/25 11:49:12;;;;;;;16.17;2.95;;;;;;;;;;4930943;28;20586;-36
2023/09/25 11:51:40;;;;;;;12.93;2.53;;;;;;;;;;4948077;28;20125;-36
2023/09/25 11:54:09;;;;;;;11.60;1.60;;;;;;;;;;4934340;28;20964;-36
2023/09/25 11:56:37;;;;;;;15.67;3.23;;;;;;;;;;4948880;28;20051;-36
2023/09/25 11:59:06;;;;;;;13.68;2.30;;;;;;;;;;4930568;28;20133;-37
2023/09/25 12:01:33;;;;;;;14.20;2.50;;;;;;;;;;4947018;28;20133;-36
2023/09/25 12:04:01;;;;;;;11.65;2.40;;;;;;;;;;4934435;28;20038;-36
2023/09/25 12:06:29;;;;;;;12.07;2.47;;;;;;;;;;4944982;28;20412;-36
2023/09/25 12:09:10;;;;;;;13.97;3.27;;;;;;;;;;4929163;28;20165;-37
2023/09/25 12:11:40;;;;;;;13.82;2.22;;;;;;;;;;4941911;28;20039;-36
2023/09/25 12:14:08;;;;;;;13.77;2.90;;;;;;;;;;4933759;28;20052;-37
2023/09/25 12:16:36;;;;;;;11.98;2.33;;;;;;;;;;4952185;28;20523;-36
2023/09/25 12:19:05;;;;;;;11.48;2.65;;;;;;;;;;4929065;28;20891;-37
2023/09/25 12:21:33;;;;;;;12.23;2.20;;;;;;;;;;4938189;28;20039;-36
2023/09/25 12:24:01;;;;;;;17.05;2.80;;;;;;;;;;4934366;28;20061;-36
2023/09/25 12:26:31;;;;;;;13.40;2.63;;;;;;;;;;4941505;28;20431;-37
2023/09/25 12:28:59;;;;;;;12.00;2.90;;;;;;;;;;4937937;28;20050;-37
2023/09/25 12:31:27;;;;;;;8.32;1.52;;;;;;;;;;4931630;28;20047;-37
2023/09/25 12:33:55;;;;;;;14.97;2.90;;;;;;;;;;4948671;28;20054;-37
2023/09/25 12:36:23;;;;;;;14.15;2.58;;;;;;;;;;4938970;28;20522;-36
2023/09/25 12:38:50;;;;;;;12.32;1.88;;;;;;;;;;4935208;28;20049;-37
2023/09/25 12:41:18;;;;;;;14.63;2.03;;;;;;;;;;4935833;28;20769;-36
2023/09/25 12:43:46;;;;;;;12.93;2.42;;;;;;;;;;4943226;28;20042;-36
2023/09/25 12:46:15;;;;;;;15.77;2.60;;;;;;;;;;4928248;28;20104;-36
2023/09/25 12:48:44;;;;;;;14.82;2.60;;;;;;;;;;4933017;28;20056;-37
2023/09/25 12:51:12;;;;;;;14.13;2.42;;;;;;;;;;4925840;28;20042;-36
2023/09/25 12:53:40;;;;;;;14.05;2.67;;;;;;;;;;4947454;28;20114;-36
2023/09/25 12:56:08;;;;;;;12.82;2.58;;;;;;;;;;4905540;28;20034;-36
2023/09/25 12:58:36;;;;;;;10.93;2.90;;;;;;;;;;4946676;28;20039;-37
2023/09/25 13:01:04;;;;;;;12.63;2.30;;;;;;;;;;4927464;28;20528;-36
2023/09/25 13:03:34;;;;;;;10.25;2.63;;;;;;;;;;4939213;28;20129;-37
2023/09/25 13:06:03;;;;;;;12.82;2.15;;;;;;;;;;4936906;28;20057;-36
2023/09/25 13:08:31;;;;;;;11.77;2.10;;;;;;;;;;4941511;28;20050;-36
2023/09/25 13:10:58;;;;;;;13.33;3.10;;;;;;;;;;4927904;28;21064;-36
2023/09/25 13:13:26;;;;;;;13.35;2.50;;;;;;;;;;4948181;28;20046;-36
2023/09/25 13:15:53;;;;;;;14.45;2.55;;;;;;;;;;4934169;28;20046;-37
2023/09/25 13:18:22;;;;;;;12.18;2.13;;;;;;;;;;4949460;28;20061;-36
2023/09/25 13:20:51;;;;;;;8.88;2.20;;;;;;;;;;4928133;28;20595;-36
2023/09/25 13:23:18;;;;;;;10.30;2.97;;;;;;;;;;4941361;28;20427;-37
2023/09/25 13:25:46;;;;;;;13.20;2.05;;;;;;;;;;4937498;28;20163;-36
2023/09/25 13:28:14;;;;;;;13.23;2.35;;;;;;;;;;4935507;28;20057;-36
2023/09/25 13:30:42;;;;;;;17.13;2.40;;;;;;;;;;4926416;28;20061;-37
2023/09/25 13:33:10;;;;;;;12.05;3.00;;;;;;;;;;4930569;28;20046;-37
2023/09/25 13:35:39;;;;;;;12.37;2.47;;;;;;;;;;4934699;28;20041;-36
2023/09/25 13:38:08;;;;;;;10.20;2.05;;;;;;;;;;4937452;28;20709;-37
2023/09/25 13:40:39;;;;;;;13.88;2.15;;;;;;;;;;4936502;28;20185;-36
2023/09/25 13:43:07;;;;;;;18.17;2.55;;;;;;;;;;4942048;28;20042;-38
2023/09/25 13:45:34;;;;;;;18.67;1.77;;;;;;;;;;4935876;28;20054;-36
2023/09/25 13:48:04;;;;;;;13.60;2.57;;;;;;;;;;4937477;28;20058;-36
2023/09/25 13:50:32;;;;;;;11.02;2.72;;;;;;;;;;4933276;28;20555;-37
2023/09/25 13:52:59;;;;;;;11.05;2.17;;;;;;;;;;4937351;28;20527;-36
2023/09/25 13:55:28;;;;;;;11.68;2.00;;;;;;;;;;4930191;28;20438;-39
2023/09/25 13:57:57;;;;;;;11.90;2.88;;;;;;;;;;4939623;28;20043;-36
2023/09/25 14:00:25;;;;;;;12.60;2.57;;;;;;;;;;4929595;28;21340;-37
2023/09/25 14:02:53;;;;;;;10.25;2.53;;;;;;;;;;4941027;28;20471;-36
2023/09/25 14:05:22;;;;;;;9.88;2.33;;;;;;;;;;4930661;28;20482;-36
2023/09/25 14:07:50;;;;;;;14.20;2.67;;;;;;;;;;4946031;28;20041;-36
2023/09/25 14:10:17;;;;;;;15.48;2.63;;;;;;;;;;4921600;28;20046;-36
2023/09/25 14:12:47;;;;;;;15.83;2.30;;;;;;;;;;4904111;28;20070;-36
2023/09/25 14:15:14;;;;;;;13.27;2.25;;;;;;;;;;4934244;28;20137;-36
2023/09/25 14:17:43;;;;;;;11.18;2.53;;;;;;;;;;4930888;28;21591;-37
2023/09/25 14:20:12;;;;;;;12.25;2.42;;;;;;;;;;4909510;28;20081;-37
2023/09/25 14:22:41;;;;;;;17.02;2.80;;;;;;;;;;4940257;28;20038;-36
2023/09/25 14:25:10;;;;;;;12.87;2.60;;;;;;;;;;4938293;28;20045;-36
2023/09/25 14:27:38;;;;;;;14.35;2.35;;;;;;;;;;4954434;28;20054;-36
2023/09/25 14:30:08;;;;;;;14.48;2.30;;;;;;;;;;4922614;28;20057;-36
2023/09/25 14:32:36;;;;;;;11.00;1.98;;;;;;;;;;4944727;28;20046;-37
2023/09/25 14:35:04;;;;;;;13.57;2.55;;;;;;;;;;4934810;28;20509;-36
2023/09/25 14:37:34;;;;;;;9.60;2.03;;;;;;;;;;4947792;28;20042;-37
2023/09/25 14:40:03;;;;;;;10.63;2.20;;;;;;;;;;4919028;28;20050;-37